Accueil
METAR-TAF:

METAR-TAF

Aéroports :

Base aérienne

Tafraoui, Algérie

latitude: 35-32-33N, longitude: 000-31-56W, altitude: 112 m

Observation

Le bulletin a été fait il y a 52 minutes, à 13:00 UTC
Vent 16 kt de nord/nord-est
Température 32°C
Humidité 24%
Pression 1014 hPa
Visibilité 10 km ou plus
Quelques nuages à une hauteur de 2600 ft
Nuages épars à une hauteur de 20000 ft

METAR: DAOL 231300Z 03016KT 9999 FEW026 SCT200 32/09 Q1014

Heure: 14:52 (13:52 UTC)


TAF: absent

Observations et prévisions météorologiques de plus de 4000 aéroports (messages METAR et TAF).

Les stations disponibles sont représentées par des disques jaunes et rouges sur la carte.

Passer la souris dessus pour voir le nom de la station.

Cliquer dessus pour voir les observations et prévisions météorologiques.

Pour changer de carte: cliquez sur les boutons verts avec une croix noire pour zoomer, sur le bouton vert avec un tiret pour effectuer un zoom arrière, ou sur les flèches vertes pour les cartes adjacentes.


METAR-TAF: